sensor_id;sensor_type;location;lat;lon;timestamp;temperature;humidity
17152;DHT22;8691;50.828;4.700;2022-11-12T00:00:30;5.40;99.90
17152;DHT22;8691;50.828;4.700;2022-11-12T00:02:57;5.40;99.90
17152;DHT22;8691;50.828;4.700;2022-11-12T00:05:24;5.40;99.90
17152;DHT22;8691;50.828;4.700;2022-11-12T00:07:51;5.30;99.90
17152;DHT22;8691;50.828;4.700;2022-11-12T00:10:18;5.30;99.90
17152;DHT22;8691;50.828;4.700;2022-11-12T00:12:45;5.40;99.90
17152;DHT22;8691;50.828;4.700;2022-11-12T00:15:12;5.30;99.90
17152;DHT22;8691;50.828;4.700;2022-11-12T00:17:39;5.30;99.90
17152;DHT22;8691;50.828;4.700;2022-11-12T00:20:06;5.30;99.90
17152;DHT22;8691;50.828;4.700;2022-11-12T00:22:34;5.30;99.90
17152;DHT22;8691;50.828;4.700;2022-11-12T00:25:01;5.30;99.90
17152;DHT22;8691;50.828;4.700;2022-11-12T00:27:28;5.30;99.90
17152;DHT22;8691;50.828;4.700;2022-11-12T00:29:54;5.30;99.90
17152;DHT22;8691;50.828;4.700;2022-11-12T00:32:21;5.30;99.90
17152;DHT22;8691;50.828;4.700;2022-11-12T00:34:48;5.30;99.90
17152;DHT22;8691;50.828;4.700;2022-11-12T00:37:15;5.20;99.90
17152;DHT22;8691;50.828;4.700;2022-11-12T00:39:42;5.20;99.90
17152;DHT22;8691;50.828;4.700;2022-11-12T00:42:09;5.20;99.90
17152;DHT22;8691;50.828;4.700;2022-11-12T00:44:36;5.20;99.90
17152;DHT22;8691;50.828;4.700;2022-11-12T00:47:02;5.20;99.90
17152;DHT22;8691;50.828;4.700;2022-11-12T00:49:30;5.10;99.90
17152;DHT22;8691;50.828;4.700;2022-11-12T00:51:57;5.00;99.90
17152;DHT22;8691;50.828;4.700;2022-11-12T00:54:24;5.00;99.90
17152;DHT22;8691;50.828;4.700;2022-11-12T00:56:52;5.00;99.90
17152;DHT22;8691;50.828;4.700;2022-11-12T00:59:19;4.90;99.90
17152;DHT22;8691;50.828;4.700;2022-11-12T01:01:46;4.90;99.90
17152;DHT22;8691;50.828;4.700;2022-11-12T01:04:13;4.90;99.90
17152;DHT22;8691;50.828;4.700;2022-11-12T01:06:39;4.90;99.90
17152;DHT22;8691;50.828;4.700;2022-11-12T01:09:07;4.90;99.90
17152;DHT22;8691;50.828;4.700;2022-11-12T01:11:34;4.90;99.90
17152;DHT22;8691;50.828;4.700;2022-11-12T01:14:01;4.80;99.90
17152;DHT22;8691;50.828;4.700;2022-11-12T01:16:29;4.80;99.90
17152;DHT22;8691;50.828;4.700;2022-11-12T01:18:55;4.80;99.90
17152;DHT22;8691;50.828;4.700;2022-11-12T01:21:21;4.90;99.90
17152;DHT22;8691;50.828;4.700;2022-11-12T01:23:48;4.80;99.90
17152;DHT22;8691;50.828;4.700;2022-11-12T01:26:15;4.80;99.90
17152;DHT22;8691;50.828;4.700;2022-11-12T01:28:41;4.80;99.90
17152;DHT22;8691;50.828;4.700;2022-11-12T01:31:22;4.90;99.90
17152;DHT22;8691;50.828;4.700;2022-11-12T01:33:48;4.90;99.90
17152;DHT22;8691;50.828;4.700;2022-11-12T01:36:14;4.90;99.90
17152;DHT22;8691;50.828;4.700;2022-11-12T01:38:41;4.80;99.90
17152;DHT22;8691;50.828;4.700;2022-11-12T01:41:08;4.80;99.90
17152;DHT22;8691;50.828;4.700;2022-11-12T01:43:34;4.80;99.90
17152;DHT22;8691;50.828;4.700;2022-11-12T01:46:02;4.70;99.90
17152;DHT22;8691;50.828;4.700;2022-11-12T01:48:33;4.80;99.90
17152;DHT22;8691;50.828;4.700;2022-11-12T01:50:58;4.70;99.90
17152;DHT22;8691;50.828;4.700;2022-11-12T01:53:25;4.80;99.90
17152;DHT22;8691;50.828;4.700;2022-11-12T01:55:53;4.70;99.90
17152;DHT22;8691;50.828;4.700;2022-11-12T01:58:20;4.70;99.90
17152;DHT22;8691;50.828;4.700;2022-11-12T02:00:46;4.70;99.90
17152;DHT22;8691;50.828;4.700;2022-11-12T02:03:22;4.60;99.90
17152;DHT22;8691;50.828;4.700;2022-11-12T02:05:40;4.60;99.90
17152;DHT22;8691;50.828;4.700;2022-11-12T02:08:06;4.60;99.90
17152;DHT22;8691;50.828;4.700;2022-11-12T02:10:33;4.60;99.90
17152;DHT22;8691;50.828;4.700;2022-11-12T02:13:00;4.60;99.90
17152;DHT22;8691;50.828;4.700;2022-11-12T02:15:45;4.60;99.90
17152;DHT22;8691;50.828;4.700;2022-11-12T02:18:11;4.50;99.90
17152;DHT22;8691;50.828;4.700;2022-11-12T02:20:38;4.50;99.90
17152;DHT22;8691;50.828;4.700;2022-11-12T02:23:06;4.40;99.90
17152;DHT22;8691;50.828;4.700;2022-11-12T02:25:32;4.40;99.90
17152;DHT22;8691;50.828;4.700;2022-11-12T02:28:00;4.40;99.90
17152;DHT22;8691;50.828;4.700;2022-11-12T02:30:35;4.40;99.90
17152;DHT22;8691;50.828;4.700;2022-11-12T02:32:59;4.40;99.90
17152;DHT22;8691;50.828;4.700;2022-11-12T02:35:27;4.40;99.90
17152;DHT22;8691;50.828;4.700;2022-11-12T02:37:54;4.40;99.90
17152;DHT22;8691;50.828;4.700;2022-11-12T02:40:21;4.40;99.90
17152;DHT22;8691;50.828;4.700;2022-11-12T02:42:48;4.40;99.90
17152;DHT22;8691;50.828;4.700;2022-11-12T02:45:14;4.40;99.90
17152;DHT22;8691;50.828;4.700;2022-11-12T02:47:41;4.40;99.90
17152;DHT22;8691;50.828;4.700;2022-11-12T02:50:08;4.40;99.90
17152;DHT22;8691;50.828;4.700;2022-11-12T02:52:35;4.40;99.90
17152;DHT22;8691;50.828;4.700;2022-11-12T02:55:02;4.40;99.90
17152;DHT22;8691;50.828;4.700;2022-11-12T02:57:28;4.40;99.90
17152;DHT22;8691;50.828;4.700;2022-11-12T02:59:55;4.40;99.90
17152;DHT22;8691;50.828;4.700;2022-11-12T03:02:22;4.40;99.90
17152;DHT22;8691;50.828;4.700;2022-11-12T03:04:49;4.30;99.90
17152;DHT22;8691;50.828;4.700;2022-11-12T03:07:16;4.30;99.90
17152;DHT22;8691;50.828;4.700;2022-11-12T03:09:43;4.40;99.90
17152;DHT22;8691;50.828;4.700;2022-11-12T03:12:10;4.40;99.90
17152;DHT22;8691;50.828;4.700;2022-11-12T03:14:37;4.30;99.90
17152;DHT22;8691;50.828;4.700;2022-11-12T03:17:05;4.30;99.90
17152;DHT22;8691;50.828;4.700;2022-11-12T03:19:32;4.30;99.90
17152;DHT22;8691;50.828;4.700;2022-11-12T03:21:59;4.30;99.90
17152;DHT22;8691;50.828;4.700;2022-11-12T03:24:25;4.30;99.90
17152;DHT22;8691;50.828;4.700;2022-11-12T03:26:52;4.30;99.90
17152;DHT22;8691;50.828;4.700;2022-11-12T03:29:19;4.30;99.90
17152;DHT22;8691;50.828;4.700;2022-11-12T03:31:46;4.30;99.90
17152;DHT22;8691;50.828;4.700;2022-11-12T03:34:13;4.20;99.90
17152;DHT22;8691;50.828;4.700;2022-11-12T03:36:40;4.20;99.90
17152;DHT22;8691;50.828;4.700;2022-11-12T03:39:06;4.20;99.90
17152;DHT22;8691;50.828;4.700;2022-11-12T03:41:33;4.20;99.90
17152;DHT22;8691;50.828;4.700;2022-11-12T03:44:00;4.20;99.90
17152;DHT22;8691;50.828;4.700;2022-11-12T03:46:27;4.20;99.90
17152;DHT22;8691;50.828;4.700;2022-11-12T03:48:53;4.30;99.90
17152;DHT22;8691;50.828;4.700;2022-11-12T03:51:21;4.30;99.90
17152;DHT22;8691;50.828;4.700;2022-11-12T03:53:48;4.30;99.90
17152;DHT22;8691;50.828;4.700;2022-11-12T03:56:14;4.30;99.90
17152;DHT22;8691;50.828;4.700;2022-11-12T03:58:41;4.30;99.90
17152;DHT22;8691;50.828;4.700;2022-11-12T04:01:08;4.20;99.90
17152;DHT22;8691;50.828;4.700;2022-11-12T04:03:35;4.20;99.90
17152;DHT22;8691;50.828;4.700;2022-11-12T04:06:02;4.20;99.90
17152;DHT22;8691;50.828;4.700;2022-11-12T04:08:47;4.10;99.90
17152;DHT22;8691;50.828;4.700;2022-11-12T04:11:14;4.10;99.90
17152;DHT22;8691;50.828;4.700;2022-11-12T04:13:40;4.10;99.90
17152;DHT22;8691;50.828;4.700;2022-11-12T04:16:11;4.00;99.90
17152;DHT22;8691;50.828;4.700;2022-11-12T04:18:55;4.00;99.90
17152;DHT22;8691;50.828;4.700;2022-11-12T04:21:46;4.00;99.90
17152;DHT22;8691;50.828;4.700;2022-11-12T04:24:18;4.00;99.90
17152;DHT22;8691;50.828;4.700;2022-11-12T04:27:02;4.00;99.90
17152;DHT22;8691;50.828;4.700;2022-11-12T04:29:29;3.90;99.90
17152;DHT22;8691;50.828;4.700;2022-11-12T04:32:14;3.90;99.90
17152;DHT22;8691;50.828;4.700;2022-11-12T04:34:41;3.90;99.90
17152;DHT22;8691;50.828;4.700;2022-11-12T04:37:08;3.90;99.90
17152;DHT22;8691;50.828;4.700;2022-11-12T04:39:35;3.90;99.90
17152;DHT22;8691;50.828;4.700;2022-11-12T04:42:02;3.90;99.90
17152;DHT22;8691;50.828;4.700;2022-11-12T04:44:47;3.90;99.90
17152;DHT22;8691;50.828;4.700;2022-11-12T04:47:23;3.90;99.90
17152;DHT22;8691;50.828;4.700;2022-11-12T04:49:50;3.90;99.90
17152;DHT22;8691;50.828;4.700;2022-11-12T04:52:17;3.90;99.90
17152;DHT22;8691;50.828;4.700;2022-11-12T04:54:43;3.90;99.90
17152;DHT22;8691;50.828;4.700;2022-11-12T04:57:10;4.00;99.90
17152;DHT22;8691;50.828;4.700;2022-11-12T04:59:37;4.00;99.90
17152;DHT22;8691;50.828;4.700;2022-11-12T05:02:04;4.00;99.90
17152;DHT22;8691;50.828;4.700;2022-11-12T05:04:31;4.00;99.90
17152;DHT22;8691;50.828;4.700;2022-11-12T05:06:59;3.90;99.90
17152;DHT22;8691;50.828;4.700;2022-11-12T05:09:26;3.90;99.90
17152;DHT22;8691;50.828;4.700;2022-11-12T05:11:53;3.90;99.90
17152;DHT22;8691;50.828;4.700;2022-11-12T05:14:20;3.90;99.90
17152;DHT22;8691;50.828;4.700;2022-11-12T05:16:47;3.90;99.90
17152;DHT22;8691;50.828;4.700;2022-11-12T05:19:14;3.90;99.90
17152;DHT22;8691;50.828;4.700;2022-11-12T05:21:41;3.90;99.90
17152;DHT22;8691;50.828;4.700;2022-11-12T05:24:25;3.90;99.90
17152;DHT22;8691;50.828;4.700;2022-11-12T05:26:52;3.90;99.90
17152;DHT22;8691;50.828;4.700;2022-11-12T05:29:19;3.80;99.90
17152;DHT22;8691;50.828;4.700;2022-11-12T05:31:45;3.80;99.90
17152;DHT22;8691;50.828;4.700;2022-11-12T05:34:12;3.80;99.90
17152;DHT22;8691;50.828;4.700;2022-11-12T05:36:40;3.70;99.90
17152;DHT22;8691;50.828;4.700;2022-11-12T05:39:07;3.70;99.90
17152;DHT22;8691;50.828;4.700;2022-11-12T05:41:34;3.70;99.90
17152;DHT22;8691;50.828;4.700;2022-11-12T05:44:01;3.70;99.90
17152;DHT22;8691;50.828;4.700;2022-11-12T05:46:28;3.70;99.90
17152;DHT22;8691;50.828;4.700;2022-11-12T05:48:55;3.70;99.90
17152;DHT22;8691;50.828;4.700;2022-11-12T05:51:22;3.70;99.90
17152;DHT22;8691;50.828;4.700;2022-11-12T05:53:49;3.70;99.90
17152;DHT22;8691;50.828;4.700;2022-11-12T05:56:17;3.70;99.90
17152;DHT22;8691;50.828;4.700;2022-11-12T05:58:44;3.70;99.90
17152;DHT22;8691;50.828;4.700;2022-11-12T06:01:11;3.60;99.90
17152;DHT22;8691;50.828;4.700;2022-11-12T06:03:38;3.60;99.90
17152;DHT22;8691;50.828;4.700;2022-11-12T06:06:05;3.60;99.90
17152;DHT22;8691;50.828;4.700;2022-11-12T06:08:31;3.60;99.90
17152;DHT22;8691;50.828;4.700;2022-11-12T06:10:58;3.60;99.90
17152;DHT22;8691;50.828;4.700;2022-11-12T06:13:25;3.60;99.90
17152;DHT22;8691;50.828;4.700;2022-11-12T06:15:52;3.60;99.90
17152;DHT22;8691;50.828;4.700;2022-11-12T06:18:19;3.60;99.90
17152;DHT22;8691;50.828;4.700;2022-11-12T06:20:45;3.60;99.90
17152;DHT22;8691;50.828;4.700;2022-11-12T06:23:12;3.50;99.90
17152;DHT22;8691;50.828;4.700;2022-11-12T06:25:39;3.60;99.90
17152;DHT22;8691;50.828;4.700;2022-11-12T06:28:06;3.50;99.90
17152;DHT22;8691;50.828;4.700;2022-11-12T06:30:33;3.50;99.90
17152;DHT22;8691;50.828;4.700;2022-11-12T06:33:00;3.50;99.90
17152;DHT22;8691;50.828;4.700;2022-11-12T06:35:27;3.50;99.90
17152;DHT22;8691;50.828;4.700;2022-11-12T06:37:54;3.50;99.90
17152;DHT22;8691;50.828;4.700;2022-11-12T06:40:21;3.50;99.90
17152;DHT22;8691;50.828;4.700;2022-11-12T06:42:47;3.50;99.90
17152;DHT22;8691;50.828;4.700;2022-11-12T06:45:14;3.50;99.90
17152;DHT22;8691;50.828;4.700;2022-11-12T06:47:41;3.50;99.90
17152;DHT22;8691;50.828;4.700;2022-11-12T06:50:08;3.50;99.90
17152;DHT22;8691;50.828;4.700;2022-11-12T06:52:34;3.50;99.90
17152;DHT22;8691;50.828;4.700;2022-11-12T06:55:01;3.50;99.90
17152;DHT22;8691;50.828;4.700;2022-11-12T06:57:28;3.50;99.90
17152;DHT22;8691;50.828;4.700;2022-11-12T06:59:55;3.50;99.90
17152;DHT22;8691;50.828;4.700;2022-11-12T07:02:21;3.50;99.90
17152;DHT22;8691;50.828;4.700;2022-11-12T07:04:49;3.60;99.90
17152;DHT22;8691;50.828;4.700;2022-11-12T07:07:16;3.60;99.90
17152;DHT22;8691;50.828;4.700;2022-11-12T07:09:43;3.70;99.90
17152;DHT22;8691;50.828;4.700;2022-11-12T07:12:09;3.70;99.90
17152;DHT22;8691;50.828;4.700;2022-11-12T07:14:37;3.90;99.90
17152;DHT22;8691;50.828;4.700;2022-11-12T07:17:04;3.80;99.90
17152;DHT22;8691;50.828;4.700;2022-11-12T07:19:32;3.90;99.90
17152;DHT22;8691;50.828;4.700;2022-11-12T07:21:59;3.90;99.90
17152;DHT22;8691;50.828;4.700;2022-11-12T07:24:25;4.00;99.90
17152;DHT22;8691;50.828;4.700;2022-11-12T07:26:52;4.00;99.90
17152;DHT22;8691;50.828;4.700;2022-11-12T07:29:19;4.00;99.90
17152;DHT22;8691;50.828;4.700;2022-11-12T07:31:46;4.00;99.90
17152;DHT22;8691;50.828;4.700;2022-11-12T07:34:13;4.00;99.90
17152;DHT22;8691;50.828;4.700;2022-11-12T07:36:40;4.10;99.90
17152;DHT22;8691;50.828;4.700;2022-11-12T07:39:07;4.20;99.90
17152;DHT22;8691;50.828;4.700;2022-11-12T07:41:34;4.20;99.90
17152;DHT22;8691;50.828;4.700;2022-11-12T07:44:01;4.30;99.90
17152;DHT22;8691;50.828;4.700;2022-11-12T07:46:28;4.40;99.90
17152;DHT22;8691;50.828;4.700;2022-11-12T07:48:54;4.50;99.90
17152;DHT22;8691;50.828;4.700;2022-11-12T07:51:25;5.10;99.90
17152;DHT22;8691;50.828;4.700;2022-11-12T07:53:54;5.10;99.90
17152;DHT22;8691;50.828;4.700;2022-11-12T07:56:21;5.80;99.90
17152;DHT22;8691;50.828;4.700;2022-11-12T07:58:48;7.20;99.90
17152;DHT22;8691;50.828;4.700;2022-11-12T08:01:30;7.20;99.90
17152;DHT22;8691;50.828;4.700;2022-11-12T08:04:00;8.00;99.90
17152;DHT22;8691;50.828;4.700;2022-11-12T08:06:26;8.80;99.90
17152;DHT22;8691;50.828;4.700;2022-11-12T08:08:53;9.30;99.90
17152;DHT22;8691;50.828;4.700;2022-11-12T08:11:20;10.20;99.90
17152;DHT22;8691;50.828;4.700;2022-11-12T08:13:48;10.50;99.90
17152;DHT22;8691;50.828;4.700;2022-11-12T08:16:15;10.50;99.90
17152;DHT22;8691;50.828;4.700;2022-11-12T08:18:42;10.90;99.90
17152;DHT22;8691;50.828;4.700;2022-11-12T08:21:09;11.00;99.90
17152;DHT22;8691;50.828;4.700;2022-11-12T08:23:35;11.60;99.90
17152;DHT22;8691;50.828;4.700;2022-11-12T08:26:03;11.50;99.90
17152;DHT22;8691;50.828;4.700;2022-11-12T08:28:29;11.90;99.90
17152;DHT22;8691;50.828;4.700;2022-11-12T08:30:56;12.10;99.90
17152;DHT22;8691;50.828;4.700;2022-11-12T08:33:22;12.10;99.90
17152;DHT22;8691;50.828;4.700;2022-11-12T08:35:49;12.20;99.90
17152;DHT22;8691;50.828;4.700;2022-11-12T08:38:17;12.60;99.90
17152;DHT22;8691;50.828;4.700;2022-11-12T08:40:44;13.00;99.90
17152;DHT22;8691;50.828;4.700;2022-11-12T08:43:11;13.00;99.90
17152;DHT22;8691;50.828;4.700;2022-11-12T08:45:38;13.10;99.90
17152;DHT22;8691;50.828;4.700;2022-11-12T08:48:06;13.20;99.90
17152;DHT22;8691;50.828;4.700;2022-11-12T08:50:32;13.70;99.90
17152;DHT22;8691;50.828;4.700;2022-11-12T08:53:02;13.80;99.90
17152;DHT22;8691;50.828;4.700;2022-11-12T08:55:29;13.80;99.90
17152;DHT22;8691;50.828;4.700;2022-11-12T08:57:55;13.80;99.90
17152;DHT22;8691;50.828;4.700;2022-11-12T09:00:22;13.70;99.90
17152;DHT22;8691;50.828;4.700;2022-11-12T09:02:48;14.50;99.90
17152;DHT22;8691;50.828;4.700;2022-11-12T09:05:15;14.50;99.90
17152;DHT22;8691;50.828;4.700;2022-11-12T09:07:43;14.80;99.90
17152;DHT22;8691;50.828;4.700;2022-11-12T09:10:10;15.00;99.90
17152;DHT22;8691;50.828;4.700;2022-11-12T09:12:36;14.90;99.90
17152;DHT22;8691;50.828;4.700;2022-11-12T09:15:04;14.90;99.90
17152;DHT22;8691;50.828;4.700;2022-11-12T09:17:30;15.10;99.90
17152;DHT22;8691;50.828;4.700;2022-11-12T09:19:57;15.30;99.90
17152;DHT22;8691;50.828;4.700;2022-11-12T09:22:24;15.50;99.90
17152;DHT22;8691;50.828;4.700;2022-11-12T09:24:51;15.70;99.90
17152;DHT22;8691;50.828;4.700;2022-11-12T09:27:18;15.80;99.90
17152;DHT22;8691;50.828;4.700;2022-11-12T09:29:46;16.20;99.90
17152;DHT22;8691;50.828;4.700;2022-11-12T09:32:13;16.20;99.90
17152;DHT22;8691;50.828;4.700;2022-11-12T09:34:40;16.90;99.90
17152;DHT22;8691;50.828;4.700;2022-11-12T09:37:07;16.80;99.90
17152;DHT22;8691;50.828;4.700;2022-11-12T09:39:34;17.00;99.90
17152;DHT22;8691;50.828;4.700;2022-11-12T09:42:08;17.00;99.90
17152;DHT22;8691;50.828;4.700;2022-11-12T09:44:35;17.00;99.90
17152;DHT22;8691;50.828;4.700;2022-11-12T09:47:05;16.90;99.90
17152;DHT22;8691;50.828;4.700;2022-11-12T09:49:42;16.90;99.90
17152;DHT22;8691;50.828;4.700;2022-11-12T09:52:02;17.10;99.90
17152;DHT22;8691;50.828;4.700;2022-11-12T09:54:29;16.90;99.90
17152;DHT22;8691;50.828;4.700;2022-11-12T09:56:54;17.00;99.90
17152;DHT22;8691;50.828;4.700;2022-11-12T09:59:23;17.30;99.90
17152;DHT22;8691;50.828;4.700;2022-11-12T10:05:02;17.60;99.90
17152;DHT22;8691;50.828;4.700;2022-11-12T10:12:42;17.80;99.90
17152;DHT22;8691;50.828;4.700;2022-11-12T10:18:15;17.90;99.90
17152;DHT22;8691;50.828;4.700;2022-11-12T10:20:54;17.80;99.90
17152;DHT22;8691;50.828;4.700;2022-11-12T10:25:43;17.90;99.90
17152;DHT22;8691;50.828;4.700;2022-11-12T10:28:32;17.70;99.90
17152;DHT22;8691;50.828;4.700;2022-11-12T10:30:57;17.70;99.90
17152;DHT22;8691;50.828;4.700;2022-11-12T10:33:22;17.40;99.90
17152;DHT22;8691;50.828;4.700;2022-11-12T10:35:49;16.90;99.90
17152;DHT22;8691;50.828;4.700;2022-11-12T10:38:17;16.70;99.90
17152;DHT22;8691;50.828;4.700;2022-11-12T10:40:43;16.10;99.90
17152;DHT22;8691;50.828;4.700;2022-11-12T10:45:44;15.90;99.90
17152;DHT22;8691;50.828;4.700;2022-11-12T10:48:24;15.80;99.90
17152;DHT22;8691;50.828;4.700;2022-11-12T10:50:50;15.70;99.90
17152;DHT22;8691;50.828;4.700;2022-11-12T10:53:34;15.70;99.90
17152;DHT22;8691;50.828;4.700;2022-11-12T10:56:03;15.70;99.90
17152;DHT22;8691;50.828;4.700;2022-11-12T10:58:26;15.60;99.90
17152;DHT22;8691;50.828;4.700;2022-11-12T11:01:11;15.50;99.90
17152;DHT22;8691;50.828;4.700;2022-11-12T11:03:34;15.50;99.90
17152;DHT22;8691;50.828;4.700;2022-11-12T11:06:01;15.50;99.90
17152;DHT22;8691;50.828;4.700;2022-11-12T11:08:38;15.50;99.90
17152;DHT22;8691;50.828;4.700;2022-11-12T11:13:43;15.50;99.90
17152;DHT22;8691;50.828;4.700;2022-11-12T11:16:11;15.60;99.90
17152;DHT22;8691;50.828;4.700;2022-11-12T11:18:37;15.60;99.90
17152;DHT22;8691;50.828;4.700;2022-11-12T11:27:02;15.60;99.90
17152;DHT22;8691;50.828;4.700;2022-11-12T11:32:18;15.60;99.90
17152;DHT22;8691;50.828;4.700;2022-11-12T11:37:26;15.50;99.90
17152;DHT22;8691;50.828;4.700;2022-11-12T11:43:03;15.60;99.90
17152;DHT22;8691;50.828;4.700;2022-11-12T11:45:36;15.70;99.90
17152;DHT22;8691;50.828;4.700;2022-11-12T11:48:29;15.70;99.90
17152;DHT22;8691;50.828;4.700;2022-11-12T11:50:54;15.70;99.90
17152;DHT22;8691;50.828;4.700;2022-11-12T11:54:18;15.80;99.90
17152;DHT22;8691;50.828;4.700;2022-11-12T11:56:22;15.80;99.90
17152;DHT22;8691;50.828;4.700;2022-11-12T11:58:48;15.80;99.90
17152;DHT22;8691;50.828;4.700;2022-11-12T12:01:55;15.80;99.90
17152;DHT22;8691;50.828;4.700;2022-11-12T12:06:37;15.70;99.90
17152;DHT22;8691;50.828;4.700;2022-11-12T12:09:21;15.70;99.90
17152;DHT22;8691;50.828;4.700;2022-11-12T12:14:39;15.70;99.90
17152;DHT22;8691;50.828;4.700;2022-11-12T12:17:17;15.80;99.90
17152;DHT22;8691;50.828;4.700;2022-11-12T12:22:23;15.80;99.90
17152;DHT22;8691;50.828;4.700;2022-11-12T12:24:47;15.90;99.90
17152;DHT22;8691;50.828;4.700;2022-11-12T12:27:17;15.90;99.90
17152;DHT22;8691;50.828;4.700;2022-11-12T12:29:44;16.00;99.90
17152;DHT22;8691;50.828;4.700;2022-11-12T12:32:13;16.00;99.90
17152;DHT22;8691;50.828;4.700;2022-11-12T12:34:42;16.10;99.90
17152;DHT22;8691;50.828;4.700;2022-11-12T12:37:11;16.10;99.90
17152;DHT22;8691;50.828;4.700;2022-11-12T12:39:44;16.10;99.90
17152;DHT22;8691;50.828;4.700;2022-11-12T12:42:16;16.20;99.90
17152;DHT22;8691;50.828;4.700;2022-11-12T12:44:54;16.10;99.90
17152;DHT22;8691;50.828;4.700;2022-11-12T12:47:32;16.00;99.90
17152;DHT22;8691;50.828;4.700;2022-11-12T12:49:57;16.00;99.90
17152;DHT22;8691;50.828;4.700;2022-11-12T12:52:23;16.10;99.90
17152;DHT22;8691;50.828;4.700;2022-11-12T12:57:36;16.10;99.90
17152;DHT22;8691;50.828;4.700;2022-11-12T13:02:50;16.20;99.90
17152;DHT22;8691;50.828;4.700;2022-11-12T13:05:25;16.20;99.90
17152;DHT22;8691;50.828;4.700;2022-11-12T13:07:50;16.10;99.90
17152;DHT22;8691;50.828;4.700;2022-11-12T13:10:33;16.20;99.90
17152;DHT22;8691;50.828;4.700;2022-11-12T13:13:07;16.20;99.90
17152;DHT22;8691;50.828;4.700;2022-11-12T13:15:44;16.20;99.90
17152;DHT22;8691;50.828;4.700;2022-11-12T13:18:10;16.10;99.90
17152;DHT22;8691;50.828;4.700;2022-11-12T13:20:37;16.10;99.90
17152;DHT22;8691;50.828;4.700;2022-11-12T13:23:07;16.10;99.90
17152;DHT22;8691;50.828;4.700;2022-11-12T13:25:31;16.10;99.90
17152;DHT22;8691;50.828;4.700;2022-11-12T13:32:55;16.20;99.90
17152;DHT22;8691;50.828;4.700;2022-11-12T13:35:28;16.20;99.90
17152;DHT22;8691;50.828;4.700;2022-11-12T13:40:43;16.20;99.90
17152;DHT22;8691;50.828;4.700;2022-11-12T13:43:29;16.10;99.90
17152;DHT22;8691;50.828;4.700;2022-11-12T13:45:52;16.10;99.90
17152;DHT22;8691;50.828;4.700;2022-11-12T13:48:28;16.00;99.90
17152;DHT22;8691;50.828;4.700;2022-11-12T13:50:54;16.10;99.90
17152;DHT22;8691;50.828;4.700;2022-11-12T13:53:27;16.10;99.90
17152;DHT22;8691;50.828;4.700;2022-11-12T13:55:53;16.00;99.90
17152;DHT22;8691;50.828;4.700;2022-11-12T13:58:25;16.00;99.90
17152;DHT22;8691;50.828;4.700;2022-11-12T14:00:50;16.00;99.90
17152;DHT22;8691;50.828;4.700;2022-11-12T14:03:17;16.00;99.90
17152;DHT22;8691;50.828;4.700;2022-11-12T14:05:45;16.00;99.90
17152;DHT22;8691;50.828;4.700;2022-11-12T14:13:54;16.00;99.90
17152;DHT22;8691;50.828;4.700;2022-11-12T14:19:10;16.00;99.90
17152;DHT22;8691;50.828;4.700;2022-11-12T14:21:32;16.00;99.90
17152;DHT22;8691;50.828;4.700;2022-11-12T14:23:59;16.00;99.90
17152;DHT22;8691;50.828;4.700;2022-11-12T14:26:39;16.00;99.90
17152;DHT22;8691;50.828;4.700;2022-11-12T14:29:05;16.00;99.90
17152;DHT22;8691;50.828;4.700;2022-11-12T14:31:32;16.00;99.90
17152;DHT22;8691;50.828;4.700;2022-11-12T14:34:21;16.00;99.90
17152;DHT22;8691;50.828;4.700;2022-11-12T14:36:47;16.10;99.90
17152;DHT22;8691;50.828;4.700;2022-11-12T14:39:15;16.00;99.90
17152;DHT22;8691;50.828;4.700;2022-11-12T14:41:42;16.00;99.90
17152;DHT22;8691;50.828;4.700;2022-11-12T14:44:13;16.00;99.90
17152;DHT22;8691;50.828;4.700;2022-11-12T14:46:47;16.00;99.90
17152;DHT22;8691;50.828;4.700;2022-11-12T14:51:45;16.00;99.90
17152;DHT22;8691;50.828;4.700;2022-11-12T14:54:13;15.80;99.90
17152;DHT22;8691;50.828;4.700;2022-11-12T14:56:43;15.70;99.90
17152;DHT22;8691;50.828;4.700;2022-11-12T14:59:11;15.70;99.90
17152;DHT22;8691;50.828;4.700;2022-11-12T15:01:37;15.70;99.90
17152;DHT22;8691;50.828;4.700;2022-11-12T15:06:37;15.60;99.90
17152;DHT22;8691;50.828;4.700;2022-11-12T15:09:03;15.60;99.90
17152;DHT22;8691;50.828;4.700;2022-11-12T15:11:42;15.60;99.90
17152;DHT22;8691;50.828;4.700;2022-11-12T15:14:03;15.60;99.90
17152;DHT22;8691;50.828;4.700;2022-11-12T15:16:31;15.70;99.90
17152;DHT22;8691;50.828;4.700;2022-11-12T15:21:45;15.70;99.90
17152;DHT22;8691;50.828;4.700;2022-11-12T15:26:42;15.50;99.90
17152;DHT22;8691;50.828;4.700;2022-11-12T15:31:55;15.20;99.90
17152;DHT22;8691;50.828;4.700;2022-11-12T15:34:28;15.00;99.90
17152;DHT22;8691;50.828;4.700;2022-11-12T15:36:54;14.90;99.90
17152;DHT22;8691;50.828;4.700;2022-11-12T15:39:21;14.60;99.90
17152;DHT22;8691;50.828;4.700;2022-11-12T15:41:55;14.40;99.90
17152;DHT22;8691;50.828;4.700;2022-11-12T15:44:16;14.40;99.90
17152;DHT22;8691;50.828;4.700;2022-11-12T15:46:42;14.30;99.90
17152;DHT22;8691;50.828;4.700;2022-11-12T15:49:12;14.10;99.90
17152;DHT22;8691;50.828;4.700;2022-11-12T15:51:38;14.00;99.90
17152;DHT22;8691;50.828;4.700;2022-11-12T15:54:05;13.90;99.90
17152;DHT22;8691;50.828;4.700;2022-11-12T15:56:32;13.80;99.90
17152;DHT22;8691;50.828;4.700;2022-11-12T15:58:59;13.60;99.90
17152;DHT22;8691;50.828;4.700;2022-11-12T16:01:26;13.50;99.90
17152;DHT22;8691;50.828;4.700;2022-11-12T16:03:52;13.40;99.90
17152;DHT22;8691;50.828;4.700;2022-11-12T16:06:19;13.30;99.90
17152;DHT22;8691;50.828;4.700;2022-11-12T16:08:46;13.20;99.90
17152;DHT22;8691;50.828;4.700;2022-11-12T16:11:13;13.10;99.90
17152;DHT22;8691;50.828;4.700;2022-11-12T16:13:58;13.00;99.90
17152;DHT22;8691;50.828;4.700;2022-11-12T16:16:25;12.90;99.90
17152;DHT22;8691;50.828;4.700;2022-11-12T16:18:52;12.80;99.90
17152;DHT22;8691;50.828;4.700;2022-11-12T16:21:18;12.80;99.90
17152;DHT22;8691;50.828;4.700;2022-11-12T16:23:45;12.70;99.90
17152;DHT22;8691;50.828;4.700;2022-11-12T16:26:13;12.70;99.90
17152;DHT22;8691;50.828;4.700;2022-11-12T16:28:39;12.60;99.90
17152;DHT22;8691;50.828;4.700;2022-11-12T16:31:06;12.60;99.90
17152;DHT22;8691;50.828;4.700;2022-11-12T16:33:32;12.50;99.90
17152;DHT22;8691;50.828;4.700;2022-11-12T16:35:59;12.40;99.90
17152;DHT22;8691;50.828;4.700;2022-11-12T16:38:26;12.30;99.90
17152;DHT22;8691;50.828;4.700;2022-11-12T16:40:53;12.20;99.90
17152;DHT22;8691;50.828;4.700;2022-11-12T16:43:20;12.20;99.90
17152;DHT22;8691;50.828;4.700;2022-11-12T16:45:47;12.10;99.90
17152;DHT22;8691;50.828;4.700;2022-11-12T16:48:21;12.00;99.90
17152;DHT22;8691;50.828;4.700;2022-11-12T16:50:47;12.00;99.90
17152;DHT22;8691;50.828;4.700;2022-11-12T16:53:14;11.90;99.90
17152;DHT22;8691;50.828;4.700;2022-11-12T16:55:40;11.90;99.90
17152;DHT22;8691;50.828;4.700;2022-11-12T16:58:11;11.80;99.90
17152;DHT22;8691;50.828;4.700;2022-11-12T17:00:34;11.70;99.90
17152;DHT22;8691;50.828;4.700;2022-11-12T17:03:01;11.70;99.90
17152;DHT22;8691;50.828;4.700;2022-11-12T17:05:27;11.60;99.90
17152;DHT22;8691;50.828;4.700;2022-11-12T17:07:56;11.50;99.90
17152;DHT22;8691;50.828;4.700;2022-11-12T17:10:22;11.50;99.90
17152;DHT22;8691;50.828;4.700;2022-11-12T17:12:49;11.40;99.90
17152;DHT22;8691;50.828;4.700;2022-11-12T17:15:16;11.40;99.90
17152;DHT22;8691;50.828;4.700;2022-11-12T17:17:43;11.40;99.90